createdAt,value
2023-03-19T00:04:22.408Z,60.04
2023-03-19T00:09:24.878Z,61.19
2023-03-19T00:14:27.272Z,60.72
2023-03-19T00:19:30.643Z,58.32
2023-03-19T00:24:33.386Z,58.48
2023-03-19T00:29:36.411Z,58.65
2023-03-19T00:34:41.921Z,62.75
2023-03-19T00:39:45.639Z,61.83
2023-03-19T00:44:49.687Z,59.25
2023-03-19T00:49:52.280Z,59.94
2023-03-19T00:54:54.774Z,60.10
2023-03-19T00:59:57.361Z,60.89
2023-03-19T01:04:59.788Z,60.07
2023-03-19T01:10:02.785Z,59.97
2023-03-19T01:15:07.193Z,61.97
2023-03-19T01:20:13.340Z,61.04
2023-03-19T01:25:16.576Z,61.31
2023-03-19T01:30:30.796Z,60.55
2023-03-19T01:35:48.152Z,60.34
2023-03-19T01:40:52.369Z,60.33
2023-03-19T01:46:06.400Z,57.16
2023-03-19T01:51:32.282Z,56.61
2023-03-19T01:57:00.447Z,58.72
2023-03-19T02:02:28.282Z,60.49
2023-03-19T02:07:34.868Z,62.77
2023-03-19T02:12:37.454Z,65.43
2023-03-19T02:17:41.598Z,74.56
2023-03-19T02:23:01.856Z,88.46
2023-03-19T02:28:05.501Z,97.04
2023-03-19T02:33:10.660Z,100.00
2023-03-19T02:38:15.040Z,100.00
2023-03-19T02:43:17.620Z,100.00
2023-03-19T02:48:20.210Z,100.00
2023-03-19T02:53:23.223Z,100.00
2023-03-19T02:58:27.757Z,100.00
2023-03-19T03:03:30.801Z,100.00
2023-03-19T03:08:33.433Z,100.00
2023-03-19T03:13:36.610Z,100.00
2023-03-19T03:18:39.043Z,100.00
2023-03-19T03:23:42.169Z,100.00
2023-03-19T03:28:44.716Z,100.00
2023-03-19T03:33:47.306Z,100.00
2023-03-19T03:38:49.937Z,100.00
2023-03-19T03:43:52.453Z,100.00
2023-03-19T03:48:54.875Z,99.64
2023-03-19T03:53:57.249Z,98.12
2023-03-19T03:58:59.969Z,99.91
2023-03-19T04:04:02.957Z,100.00
2023-03-19T04:09:07.969Z,96.46
2023-03-19T04:14:10.757Z,97.92
2023-03-19T04:19:14.798Z,95.03
2023-03-19T04:24:17.270Z,94.53
2023-03-19T04:29:19.998Z,94.31
2023-03-19T04:34:22.856Z,90.21
2023-03-19T04:39:26.082Z,88.71
2023-03-19T04:44:28.860Z,88.16
2023-03-19T04:49:32.348Z,86.23
2023-03-19T04:54:35.396Z,88.32
2023-03-19T04:59:39.099Z,85.79
2023-03-19T05:04:44.225Z,86.46
2023-03-19T05:09:50.157Z,89.61
2023-03-19T05:14:53.627Z,87.56
2023-03-19T05:20:06.904Z,88.65
2023-03-19T05:25:11.311Z,88.90
2023-03-19T05:30:18.379Z,91.97
2023-03-19T05:35:43.801Z,93.03
2023-03-19T05:40:54.791Z,94.74
2023-03-19T05:46:06.965Z,94.97
2023-03-19T05:51:09.905Z,94.67
2023-03-19T05:56:16.987Z,95.95
2023-03-19T06:01:39.626Z,92.60
2023-03-19T06:06:42.907Z,89.91
2023-03-19T06:11:45.762Z,87.58
2023-03-19T06:17:17.354Z,84.74
2023-03-19T06:22:22.403Z,83.82
2023-03-19T06:27:25.257Z,81.87
2023-03-19T06:32:33.673Z,85.61
2023-03-19T06:37:42.318Z,88.30
2023-03-19T06:42:48.513Z,85.14
2023-03-19T06:47:53.633Z,86.18
2023-03-19T06:52:56.189Z,87.23
2023-03-19T06:57:58.615Z,86.99
2023-03-19T07:03:01.326Z,87.17
2023-03-19T07:08:04.525Z,86.39
2023-03-19T07:13:07.734Z,86.65
2023-03-19T07:18:10.435Z,85.39
2023-03-19T07:23:12.811Z,86.97
2023-03-19T07:28:15.950Z,87.28
2023-03-19T07:33:18.647Z,86.45
2023-03-19T07:38:21.278Z,86.43
2023-03-19T07:43:23.756Z,86.86
2023-03-19T07:48:26.974Z,86.30
2023-03-19T07:53:29.625Z,85.00
2023-03-19T07:58:32.518Z,86.36
2023-03-19T08:03:35.137Z,86.75
2023-03-19T08:08:37.608Z,85.46
2023-03-19T08:13:40.026Z,84.67
2023-03-19T08:18:42.544Z,83.82
2023-03-19T08:23:45.062Z,83.18
2023-03-19T08:28:47.499Z,82.54
2023-03-19T08:33:49.854Z,80.69
2023-03-19T08:38:54.826Z,79.82
2023-03-19T08:43:57.326Z,78.49
2023-03-19T08:49:00.526Z,75.98
2023-03-19T08:54:03.288Z,73.72
2023-03-19T08:59:06.299Z,74.10
2023-03-19T09:04:09.055Z,72.01
2023-03-19T09:09:11.551Z,68.51
2023-03-19T09:14:16.670Z,60.67
2023-03-19T09:19:19.272Z,61.49
2023-03-19T09:24:21.807Z,60.43
2023-03-19T09:29:24.424Z,59.05
2023-03-19T09:34:27.092Z,58.65
2023-03-19T09:39:29.858Z,57.35
2023-03-19T09:44:40.055Z,58.95
2023-03-19T09:49:46.496Z,56.41
2023-03-19T09:54:54.961Z,56.92
2023-03-19T09:59:57.481Z,51.64
2023-03-19T10:05:05.540Z,47.88
2023-03-19T10:10:07.897Z,49.04
2023-03-19T10:15:10.489Z,50.07
2023-03-19T10:20:36.669Z,48.46
2023-03-19T10:25:43.070Z,47.60
2023-03-19T10:31:07.302Z,45.69
2023-03-19T10:36:14.924Z,46.35
2023-03-19T10:41:22.147Z,44.30
2023-03-19T10:46:25.171Z,41.25
2023-03-19T10:51:28.294Z,38.17
2023-03-19T10:56:34.620Z,37.84
2023-03-19T11:01:40.738Z,38.13
2023-03-19T11:06:48.209Z,38.44
2023-03-19T11:11:54.156Z,39.86
2023-03-19T11:17:06.978Z,39.23
2023-03-19T11:22:21.219Z,42.73
2023-03-19T11:27:35.761Z,42.79
2023-03-19T11:32:41.314Z,43.58
2023-03-19T11:37:53.154Z,39.71
2023-03-19T11:43:12.314Z,39.58
2023-03-19T11:48:39.016Z,40.13
2023-03-19T11:53:50.200Z,39.26
2023-03-19T11:59:05.664Z,39.96
2023-03-19T12:04:45.968Z,42.25
2023-03-19T12:10:18.465Z,39.76
2023-03-19T12:15:43.126Z,40.18
2023-03-19T12:21:12.639Z,43.17
2023-03-19T12:26:57.473Z,44.11
2023-03-19T12:32:23.681Z,43.57
2023-03-19T12:37:31.466Z,45.49
2023-03-19T12:42:41.118Z,45.88
2023-03-19T12:47:45.840Z,48.45
2023-03-19T12:52:51.891Z,48.23
2023-03-19T12:58:17.517Z,48.61
2023-03-19T13:03:34.074Z,57.09
2023-03-19T13:08:43.558Z,54.76
2023-03-19T13:13:57.328Z,63.58
2023-03-19T13:19:30.207Z,65.57
2023-03-19T13:24:39.238Z,63.78
2023-03-19T13:30:01.050Z,59.69
2023-03-19T13:35:34.211Z,62.77
2023-03-19T13:40:43.406Z,60.90
2023-03-19T13:45:45.950Z,65.91
2023-03-19T13:51:03.637Z,68.87
2023-03-19T13:56:28.554Z,68.21
2023-03-19T14:01:38.565Z,73.49
2023-03-19T14:06:47.968Z,74.08
2023-03-19T14:11:50.457Z,61.89
2023-03-19T14:16:54.941Z,58.48
2023-03-19T14:22:00.152Z,57.68
2023-03-19T14:27:16.158Z,61.31
2023-03-19T14:32:21.965Z,64.14
2023-03-19T14:37:44.539Z,65.41
2023-03-19T14:42:52.997Z,62.15
2023-03-19T14:48:20.509Z,63.91
2023-03-19T14:53:26.386Z,69.00
2023-03-19T14:58:28.967Z,64.77
2023-03-19T15:03:37.938Z,67.16
2023-03-19T15:08:42.122Z,65.19
2023-03-19T15:14:04.209Z,63.25
2023-03-19T15:19:10.987Z,65.30
2023-03-19T15:24:17.913Z,64.95
2023-03-19T15:29:32.421Z,64.29
2023-03-19T15:34:37.330Z,62.72
2023-03-19T15:39:50.406Z,63.19
2023-03-19T15:45:01.330Z,63.11
2023-03-19T15:50:12.544Z,63.95
2023-03-19T15:55:16.834Z,61.07
2023-03-19T16:00:20.068Z,64.11
2023-03-19T16:05:28.393Z,67.11
2023-03-19T16:10:41.092Z,66.91
2023-03-19T16:15:45.135Z,68.52
2023-03-19T16:21:08.381Z,69.12
2023-03-19T16:26:18.517Z,76.11
2023-03-19T16:31:24.552Z,75.15
2023-03-19T16:36:33.824Z,75.42
2023-03-19T16:41:36.874Z,80.79
2023-03-19T16:46:39.579Z,86.17
2023-03-19T16:52:03.842Z,83.72
2023-03-19T16:57:06.580Z,85.09
2023-03-19T17:02:13.689Z,89.51
2023-03-19T17:07:16.314Z,93.67
2023-03-19T17:12:18.910Z,98.81
2023-03-19T17:17:21.977Z,99.58
2023-03-19T17:22:27.684Z,100.00
2023-03-19T17:27:32.453Z,97.98
2023-03-19T17:32:38.437Z,93.18
2023-03-19T17:37:41.192Z,87.26
2023-03-19T17:42:43.723Z,85.75
2023-03-19T17:47:50.765Z,91.39
2023-03-19T17:52:53.851Z,100.00
2023-03-19T17:57:56.995Z,98.34
2023-03-19T18:02:59.579Z,99.94
2023-03-19T18:08:02.278Z,100.00
2023-03-19T18:13:07.543Z,100.00
2023-03-19T18:18:28.320Z,100.00
2023-03-19T18:23:31.276Z,100.00
2023-03-19T18:28:34.162Z,100.00
2023-03-19T18:33:37.435Z,100.00
2023-03-19T18:38:40.744Z,100.00
2023-03-19T18:43:43.143Z,100.00
2023-03-19T18:48:45.578Z,100.00
2023-03-19T18:53:48.113Z,100.00
2023-03-19T18:58:52.510Z,100.00
2023-03-19T19:03:55.548Z,100.00
2023-03-19T19:08:58.073Z,100.00
2023-03-19T19:14:01.209Z,100.00
2023-03-19T19:19:17.631Z,100.00
2023-03-19T19:24:21.261Z,100.00
2023-03-19T19:29:27.102Z,100.00
2023-03-19T19:34:29.582Z,100.00
2023-03-19T19:39:32.325Z,100.00
2023-03-19T19:44:35.013Z,100.00
2023-03-19T19:49:37.529Z,100.00
2023-03-19T19:54:40.379Z,100.00
2023-03-19T19:59:43.627Z,100.00
2023-03-19T20:04:46.661Z,100.00
2023-03-19T20:09:49.605Z,100.00
2023-03-19T20:14:52.389Z,100.00
2023-03-19T20:19:55.003Z,100.00
2023-03-19T20:24:58.135Z,100.00
2023-03-19T20:30:00.859Z,100.00
2023-03-19T20:35:05.277Z,100.00
2023-03-19T20:40:08.048Z,100.00
2023-03-19T20:45:18.028Z,100.00
2023-03-19T20:50:34.878Z,100.00
2023-03-19T20:55:39.848Z,100.00
2023-03-19T21:00:42.505Z,100.00
2023-03-19T21:05:46.195Z,100.00
2023-03-19T21:10:49.417Z,100.00
2023-03-19T21:15:54.120Z,100.00
2023-03-19T21:20:58.061Z,100.00
2023-03-19T21:26:17.821Z,100.00
2023-03-19T21:31:21.163Z,100.00
2023-03-19T21:36:23.880Z,100.00
2023-03-19T21:41:33.547Z,100.00
2023-03-19T21:46:36.890Z,100.00
2023-03-19T21:51:39.560Z,100.00
2023-03-19T21:56:43.987Z,100.00
2023-03-19T22:01:46.712Z,100.00
2023-03-19T22:06:49.291Z,100.00
2023-03-19T22:11:52.448Z,100.00
2023-03-19T22:16:56.009Z,100.00
2023-03-19T22:21:58.499Z,100.00
2023-03-19T22:27:01.199Z,100.00
2023-03-19T22:32:04.222Z,100.00
2023-03-19T22:37:26.916Z,100.00
2023-03-19T22:42:29.429Z,100.00
2023-03-19T22:47:38.247Z,100.00
2023-03-19T22:52:40.696Z,100.00
2023-03-19T22:57:43.570Z,100.00
2023-03-19T23:02:48.230Z,100.00
2023-03-19T23:07:50.895Z,100.00
2023-03-19T23:12:55.753Z,100.00
2023-03-19T23:17:59.914Z,100.00
2023-03-19T23:23:02.610Z,100.00
2023-03-19T23:28:06.084Z,100.00
2023-03-19T23:33:10.923Z,100.00
2023-03-19T23:38:14.225Z,100.00
2023-03-19T23:43:21.896Z,100.00
2023-03-19T23:48:38.712Z,100.00
2023-03-19T23:53:42.141Z,100.00
2023-03-19T23:58:46.428Z,100.00
